Terminal Aerodrome Forecast
Issued by NWS Twin Cities, MN

Home | Current Version | Previous Version | Text Only | Print | Product List | Glossary Off
Versions: 1 2 3 4 5 6 7 8 9 10 11 12 13 14 15 16

000
FTUS43 KMPX 201700 RRA
TAFSTC
TAF
KSTC 201741Z 2018/2118 19010KT 6SM BR OVC010
     FM210300 16007KT 4SM BR OVC007
     FM211600 15007KT 6SM BR SCT008 OVC014=

USA.gov is the U.S. government's official web portal to all federal, state and local government web resources and services.